createdAt,value
2022-11-13T00:00:42.970Z,100804.88
2022-11-13T00:03:29.660Z,100806.81
2022-11-13T00:06:16.352Z,100811.00
2022-11-13T00:09:01.290Z,100809.56
2022-11-13T00:11:46.735Z,100813.75
2022-11-13T00:14:32.089Z,100808.47
2022-11-13T00:17:17.512Z,100812.38
2022-11-13T00:20:02.793Z,100811.81
2022-11-13T00:22:48.109Z,100812.38
2022-11-13T00:25:35.492Z,100806.50
2022-11-13T00:28:20.489Z,100804.88
2022-11-13T00:31:07.246Z,100807.63
2022-11-13T00:36:59.152Z,100812.09
2022-11-13T00:39:44.401Z,100803.47
2022-11-13T00:42:29.932Z,100799.84
2022-11-13T00:45:15.289Z,100801.09
2022-11-13T00:48:00.515Z,100796.38
2022-11-13T00:50:45.989Z,100803.31
2022-11-13T00:53:31.489Z,100797.06
2022-11-13T00:56:16.900Z,100804.16
2022-11-13T00:59:02.058Z,100801.94
2022-11-13T01:01:47.518Z,100802.06
2022-11-13T01:04:32.641Z,100800.53
2022-11-13T01:07:17.943Z,100808.19
2022-11-13T01:10:06.327Z,100808.75
2022-11-13T01:12:51.605Z,100802.75
2022-11-13T01:15:41.477Z,100797.88
2022-11-13T01:18:26.959Z,100798.44
2022-11-13T01:21:13.869Z,100796.53
2022-11-13T01:23:59.048Z,100802.75
2022-11-13T01:26:44.259Z,100804.00
2022-11-13T01:29:29.294Z,100796.94
2022-11-13T01:32:14.320Z,100798.88
2022-11-13T01:34:59.437Z,100793.47
2022-11-13T01:37:44.623Z,100794.84
2022-11-13T01:40:29.636Z,100789.97
2022-11-13T01:43:32.448Z,100797.63
2022-11-13T01:46:22.258Z,100807.66
2022-11-13T01:49:10.612Z,100801.66
2022-11-13T01:52:01.223Z,100803.22
2022-11-13T01:55:09.403Z,100805.69
2022-11-13T01:57:54.344Z,100794.31
2022-11-13T02:00:39.656Z,100801.13
2022-11-13T02:03:24.815Z,100796.53
2022-11-13T02:06:10.101Z,100788.44
2022-11-13T02:08:55.304Z,100778.41
2022-11-13T02:11:41.402Z,100776.34
2022-11-13T02:14:28.299Z,100778.41
2022-11-13T02:17:17.451Z,100771.59
2022-11-13T02:20:05.025Z,100766.97
2022-11-13T02:23:09.459Z,100765.31
2022-11-13T02:25:54.893Z,100764.88
2022-11-13T02:28:40.144Z,100764.16
2022-11-13T02:31:25.569Z,100754.28
2022-11-13T02:34:10.723Z,100752.16
2022-11-13T02:36:55.920Z,100755.06
2022-11-13T02:39:41.473Z,100761.19
2022-11-13T02:42:26.644Z,100748.25
2022-11-13T02:45:11.959Z,100751.28
2022-11-13T02:48:00.112Z,100743.88
2022-11-13T02:50:45.534Z,100752.63
2022-11-13T02:53:30.845Z,100748.44
2022-11-13T02:56:15.930Z,100746.50
2022-11-13T02:59:01.171Z,100746.16
2022-11-13T03:01:47.552Z,100742.66
2022-11-13T03:05:04.890Z,100741.69
2022-11-13T03:07:37.791Z,100742.41
2022-11-13T03:10:23.228Z,100744.22
2022-11-13T03:13:08.313Z,100736.22
2022-11-13T03:15:53.680Z,100742.34
2022-11-13T03:18:38.903Z,100735.78
2022-11-13T03:21:24.205Z,100738.13
2022-11-13T03:24:09.355Z,100738.94
2022-11-13T03:26:54.464Z,100731.13
2022-11-13T03:29:39.726Z,100731.09
2022-11-13T03:32:24.833Z,100723.53
2022-11-13T03:35:10.081Z,100722.31
2022-11-13T03:37:55.200Z,100723.84
2022-11-13T03:40:40.515Z,100717.25
2022-11-13T03:43:25.679Z,100718.47
2022-11-13T03:46:10.996Z,100715.97
2022-11-13T03:48:56.257Z,100716.94
2022-11-13T03:51:41.362Z,100724.16
2022-11-13T03:54:26.558Z,100720.66
2022-11-13T03:57:12.871Z,100713.22
2022-11-13T03:59:58.015Z,100714.22
2022-11-13T04:02:43.362Z,100718.56
2022-11-13T04:05:28.659Z,100715.91
2022-11-13T04:08:14.004Z,100720.22
2022-11-13T04:11:12.080Z,100716.34
2022-11-13T04:13:57.032Z,100711.44
2022-11-13T04:16:42.228Z,100709.69
2022-11-13T04:19:27.503Z,100703.81
2022-11-13T04:22:12.987Z,100711.19
2022-11-13T04:24:57.965Z,100707.25
2022-11-13T04:27:43.324Z,100701.81
2022-11-13T04:30:28.725Z,100708.63
2022-11-13T04:33:14.056Z,100706.38
2022-11-13T04:35:59.223Z,100713.78
2022-11-13T04:38:44.507Z,100707.22
2022-11-13T04:41:54.047Z,100697.41
2022-11-13T04:44:40.793Z,100703.53
2022-11-13T04:47:26.093Z,100710.00
2022-11-13T04:50:11.698Z,100713.56
2022-11-13T04:52:56.752Z,100720.84
2022-11-13T04:55:42.133Z,100726.69
2022-11-13T04:58:27.738Z,100735.31
2022-11-13T05:01:13.296Z,100718.81
2022-11-13T05:03:58.614Z,100717.38
2022-11-13T05:06:43.798Z,100724.03
2022-11-13T05:09:29.121Z,100724.47
2022-11-13T05:12:14.729Z,100718.25
2022-11-13T05:14:59.734Z,100737.19
2022-11-13T05:17:44.978Z,100734.09
2022-11-13T05:20:30.164Z,100744.13
2022-11-13T05:23:15.478Z,100734.31
2022-11-13T05:26:11.922Z,100737.94
2022-11-13T05:29:00.678Z,100738.91
2022-11-13T05:31:45.643Z,100726.91
2022-11-13T05:34:30.660Z,100734.22
2022-11-13T05:37:16.163Z,100728.94
2022-11-13T05:40:01.386Z,100729.91
2022-11-13T05:42:46.659Z,100732.91
2022-11-13T05:45:31.639Z,100736.56
2022-11-13T05:48:16.993Z,100736.25
2022-11-13T05:51:16.242Z,100737.75
2022-11-13T05:54:01.633Z,100737.34
2022-11-13T05:56:46.975Z,100742.47
2022-11-13T05:59:32.122Z,100746.34
2022-11-13T06:02:17.517Z,100742.28
2022-11-13T06:05:02.768Z,100742.81
2022-11-13T06:07:51.182Z,100738.03
2022-11-13T06:10:36.507Z,100737.88
2022-11-13T06:13:21.737Z,100738.81
2022-11-13T06:16:19.194Z,100737.13
2022-11-13T06:19:06.886Z,100743.59
2022-11-13T06:21:52.116Z,100743.25
2022-11-13T06:24:37.429Z,100734.34
2022-11-13T06:27:22.679Z,100739.19
2022-11-13T06:30:08.566Z,100736.06
2022-11-13T06:32:54.253Z,100737.66
2022-11-13T06:35:39.250Z,100736.38
2022-11-13T06:38:24.545Z,100742.56
2022-11-13T06:41:12.022Z,100740.59
2022-11-13T06:44:02.381Z,100739.31
2022-11-13T06:46:48.664Z,100730.66
2022-11-13T06:49:33.973Z,100731.09
2022-11-13T06:52:19.220Z,100724.16
2022-11-13T06:55:04.887Z,100723.84
2022-11-13T06:57:50.087Z,100723.28
2022-11-13T07:00:37.124Z,100732.31
2022-11-13T07:03:25.992Z,100720.25
2022-11-13T07:06:14.046Z,100720.63
2022-11-13T07:08:59.077Z,100725.63
2022-11-13T07:11:44.411Z,100719.16
2022-11-13T07:14:29.660Z,100718.22
2022-11-13T07:17:15.115Z,100720.59
2022-11-13T07:20:00.242Z,100717.63
2022-11-13T07:22:45.431Z,100722.97
2022-11-13T07:25:30.847Z,100714.69
2022-11-13T07:28:16.352Z,100716.38
2022-11-13T07:31:01.966Z,100720.94
2022-11-13T07:33:48.793Z,100719.28
2022-11-13T07:36:34.061Z,100717.63
2022-11-13T07:39:19.440Z,100713.63
2022-11-13T07:42:04.816Z,100724.91
2022-11-13T07:44:54.860Z,100712.78
2022-11-13T07:47:40.500Z,100714.09
2022-11-13T07:50:27.704Z,100722.06
2022-11-13T07:53:13.248Z,100730.66
2022-11-13T07:56:01.124Z,100730.00
2022-11-13T07:58:46.028Z,100729.13
2022-11-13T08:01:31.422Z,100726.81
2022-11-13T08:04:16.514Z,100729.94
2022-11-13T08:07:01.947Z,100727.56
2022-11-13T08:09:46.987Z,100727.03
2022-11-13T08:12:32.189Z,100721.97
2022-11-13T08:15:17.398Z,100726.94
2022-11-13T08:18:03.937Z,100720.16
2022-11-13T08:20:49.030Z,100722.81
2022-11-13T08:23:34.214Z,100719.47
2022-11-13T08:26:19.549Z,100717.56
2022-11-13T08:29:04.825Z,100719.19
2022-11-13T08:31:50.194Z,100714.44
2022-11-13T08:34:37.279Z,100724.38
2022-11-13T08:37:23.337Z,100724.16
2022-11-13T08:40:09.401Z,100716.94
2022-11-13T08:43:01.900Z,100710.59
2022-11-13T08:45:47.477Z,100714.88
2022-11-13T08:48:33.035Z,100714.25
2022-11-13T08:51:18.420Z,100716.91
2022-11-13T08:54:03.801Z,100711.28
2022-11-13T08:56:54.658Z,100712.75
2022-11-13T08:59:41.179Z,100712.75
2022-11-13T09:02:27.152Z,100721.91
2022-11-13T09:05:12.695Z,100718.38
2022-11-13T09:07:59.593Z,100724.31
2022-11-13T09:10:44.753Z,100720.63
2022-11-13T09:13:30.985Z,100705.72
2022-11-13T09:16:16.150Z,100716.09
2022-11-13T09:19:01.402Z,100716.31
2022-11-13T09:21:47.158Z,100710.44
2022-11-13T09:24:32.517Z,100708.06
2022-11-13T09:27:18.437Z,100714.94
2022-11-13T09:30:03.712Z,100712.25
2022-11-13T09:32:48.733Z,100714.63
2022-11-13T09:35:34.624Z,100698.59
2022-11-13T09:38:19.884Z,100700.25
2022-11-13T09:41:09.967Z,100707.16
2022-11-13T09:44:00.050Z,100700.03
2022-11-13T09:47:19.993Z,100697.69
2022-11-13T09:50:11.117Z,100689.34
2022-11-13T09:52:56.893Z,100688.94
2022-11-13T09:55:50.509Z,100691.94
2022-11-13T09:59:02.266Z,100685.97
2022-11-13T10:02:07.517Z,100679.44
2022-11-13T10:05:21.702Z,100684.09
2022-11-13T10:08:14.429Z,100681.53
2022-11-13T10:11:14.897Z,100669.47
2022-11-13T10:14:03.835Z,100665.94
2022-11-13T10:16:57.725Z,100649.31
2022-11-13T10:20:00.513Z,100652.75
2022-11-13T10:22:56.186Z,100636.75
2022-11-13T10:25:42.746Z,100637.31
2022-11-13T10:28:49.532Z,100629.06
2022-11-13T10:31:47.980Z,100633.50
2022-11-13T10:34:33.475Z,100619.25
2022-11-13T10:37:45.357Z,100610.00
2022-11-13T10:40:32.982Z,100614.34
2022-11-13T10:43:23.609Z,100604.22
2022-11-13T10:46:20.777Z,100592.81
2022-11-13T10:49:20.410Z,100591.41
2022-11-13T10:52:18.282Z,100587.03
2022-11-13T10:55:16.986Z,100577.13
2022-11-13T10:58:05.032Z,100574.47
2022-11-13T11:00:50.551Z,100574.47
2022-11-13T11:03:35.825Z,100568.25
2022-11-13T11:06:50.422Z,100559.97
2022-11-13T11:09:38.425Z,100559.75
2022-11-13T11:12:30.645Z,100555.66
2022-11-13T11:15:22.486Z,100550.28
2022-11-13T11:18:18.084Z,100556.28
2022-11-13T11:21:08.394Z,100546.31
2022-11-13T11:24:07.432Z,100539.88
2022-11-13T11:27:03.907Z,100549.34
2022-11-13T11:29:53.105Z,100535.47
2022-11-13T11:32:55.923Z,100536.44
2022-11-13T11:35:45.658Z,100532.31
2022-11-13T11:38:40.701Z,100544.94
2022-11-13T11:41:46.936Z,100533.34
2022-11-13T11:45:01.941Z,100528.16
2022-11-13T11:47:47.757Z,100518.06
2022-11-13T11:50:46.395Z,100510.38
2022-11-13T11:53:45.849Z,100499.41
2022-11-13T11:56:40.464Z,100504.97
2022-11-13T11:59:39.417Z,100492.53
2022-11-13T12:02:41.501Z,100494.75
2022-11-13T12:05:47.952Z,100496.41
2022-11-13T12:08:41.150Z,100493.91
2022-11-13T12:11:36.040Z,100485.84
2022-11-13T12:14:42.457Z,100488.38
2022-11-13T12:17:36.328Z,100487.31
2022-11-13T12:20:35.981Z,100479.28
2022-11-13T12:23:30.767Z,100469.63
2022-11-13T12:26:23.442Z,100477.06
2022-11-13T12:29:17.348Z,100474.34
2022-11-13T12:32:28.669Z,100472.00
2022-11-13T12:35:23.493Z,100466.38
2022-11-13T12:38:21.522Z,100462.03
2022-11-13T12:41:16.999Z,100457.91
2022-11-13T12:44:20.892Z,100463.31
2022-11-13T12:47:07.601Z,100452.53
2022-11-13T12:50:32.129Z,100456.44
2022-11-13T12:53:27.001Z,100448.44
2022-11-13T12:56:42.927Z,100443.44
2022-11-13T12:59:36.092Z,100443.09
2022-11-13T13:02:31.337Z,100446.84
2022-11-13T13:05:33.736Z,100434.88
2022-11-13T13:08:32.486Z,100440.47
2022-11-13T13:11:32.751Z,100434.50
2022-11-13T13:14:32.129Z,100437.84
2022-11-13T13:17:22.996Z,100428.56
2022-11-13T13:20:11.298Z,100430.22
2022-11-13T13:22:58.416Z,100419.09
2022-11-13T13:25:43.884Z,100425.31
2022-11-13T13:28:31.651Z,100419.31
2022-11-13T13:31:43.143Z,100424.09
2022-11-13T13:34:46.920Z,100425.75
2022-11-13T13:37:56.974Z,100423.88
2022-11-13T13:41:00.025Z,100413.97
2022-11-13T13:44:03.503Z,100415.81
2022-11-13T13:46:49.196Z,100402.56
2022-11-13T13:49:34.383Z,100412.09
2022-11-13T13:52:30.145Z,100404.66
2022-11-13T13:55:37.119Z,100409.41
2022-11-13T13:58:36.466Z,100401.56
2022-11-13T14:01:32.094Z,100404.41
2022-11-13T14:04:22.186Z,100406.91
2022-11-13T14:07:28.869Z,100405.25
2022-11-13T14:10:20.436Z,100405.00
2022-11-13T14:13:05.615Z,100398.78
2022-11-13T14:16:01.427Z,100395.69
2022-11-13T14:18:47.175Z,100395.84
2022-11-13T14:21:32.908Z,100393.72
2022-11-13T14:24:51.587Z,100405.84
2022-11-13T14:27:37.588Z,100400.88
2022-11-13T14:30:28.076Z,100406.16
2022-11-13T14:33:20.722Z,100402.16
2022-11-13T14:36:06.263Z,100395.78
2022-11-13T14:38:52.341Z,100392.84
2022-11-13T14:41:50.944Z,100393.81
2022-11-13T14:44:36.320Z,100393.38
2022-11-13T14:47:24.423Z,100383.44
2022-11-13T14:50:21.647Z,100388.59
2022-11-13T14:53:09.701Z,100389.47
2022-11-13T14:55:56.863Z,100388.41
2022-11-13T14:58:47.286Z,100394.50
2022-11-13T15:01:32.963Z,100390.53
2022-11-13T15:04:18.242Z,100382.88
2022-11-13T15:07:19.479Z,100383.00
2022-11-13T15:10:04.918Z,100378.31
2022-11-13T15:12:50.050Z,100383.63
2022-11-13T15:15:35.520Z,100382.41
2022-11-13T15:18:20.816Z,100392.06
2022-11-13T15:21:06.722Z,100388.31
2022-11-13T15:23:51.837Z,100391.47
2022-11-13T15:26:37.555Z,100384.19
2022-11-13T15:29:22.503Z,100383.56
2022-11-13T15:32:12.341Z,100389.66
2022-11-13T15:34:57.649Z,100388.38
2022-11-13T15:37:43.273Z,100381.47
2022-11-13T15:40:28.253Z,100387.38
2022-11-13T15:43:19.026Z,100387.75
2022-11-13T15:46:04.244Z,100381.22
2022-11-13T15:48:49.883Z,100385.81
2022-11-13T15:51:41.579Z,100393.28
2022-11-13T15:54:29.717Z,100399.44
2022-11-13T15:57:26.157Z,100394.81
2022-11-13T16:00:16.484Z,100394.00
2022-11-13T16:03:04.389Z,100395.34
2022-11-13T16:05:50.793Z,100407.88
2022-11-13T16:08:35.977Z,100405.63
2022-11-13T16:11:21.301Z,100408.72
2022-11-13T16:14:06.520Z,100415.13
2022-11-13T16:16:51.945Z,100425.38
2022-11-13T16:19:37.873Z,100415.63
2022-11-13T16:22:27.039Z,100423.84
2022-11-13T16:25:15.305Z,100423.19
2022-11-13T16:28:00.939Z,100419.88
2022-11-13T16:30:47.597Z,100420.00
2022-11-13T16:33:34.284Z,100426.53
2022-11-13T16:36:24.176Z,100426.16
2022-11-13T16:39:15.210Z,100430.66
2022-11-13T16:42:00.590Z,100427.16
2022-11-13T16:44:46.243Z,100410.25
2022-11-13T16:47:32.900Z,100419.28
2022-11-13T16:50:24.616Z,100425.59
2022-11-13T16:53:10.928Z,100410.16
2022-11-13T16:55:57.715Z,100414.72
2022-11-13T16:58:47.191Z,100403.56
2022-11-13T17:01:32.715Z,100409.03
2022-11-13T17:04:18.513Z,100406.09
2022-11-13T17:07:03.893Z,100407.47
2022-11-13T17:09:58.947Z,100423.91
2022-11-13T17:12:55.139Z,100422.03
2022-11-13T17:15:41.286Z,100415.25
2022-11-13T17:18:27.105Z,100424.63
2022-11-13T17:21:13.110Z,100412.91
2022-11-13T17:24:02.660Z,100416.44
2022-11-13T17:26:48.110Z,100416.97
2022-11-13T17:29:34.169Z,100432.09
2022-11-13T17:32:19.612Z,100417.34
2022-11-13T17:35:06.113Z,100410.03
2022-11-13T17:37:52.214Z,100421.97
2022-11-13T17:40:37.901Z,100419.22
2022-11-13T17:43:23.595Z,100423.38
2022-11-13T17:46:11.447Z,100422.75
2022-11-13T17:48:57.149Z,100413.47
2022-11-13T17:51:42.566Z,100418.47
2022-11-13T17:54:29.302Z,100417.47
2022-11-13T17:57:14.746Z,100411.00
2022-11-13T18:00:00.061Z,100428.59
2022-11-13T18:02:46.540Z,100417.50
2022-11-13T18:05:31.860Z,100427.78
2022-11-13T18:08:17.237Z,100426.63
2022-11-13T18:11:08.012Z,100423.97
2022-11-13T18:13:53.586Z,100422.34
2022-11-13T18:16:38.842Z,100424.69
2022-11-13T18:19:24.252Z,100418.50
2022-11-13T18:22:09.615Z,100425.81
2022-11-13T18:24:55.180Z,100427.63
2022-11-13T18:27:41.649Z,100415.16
2022-11-13T18:30:27.380Z,100429.63
2022-11-13T18:33:12.482Z,100437.28
2022-11-13T18:35:58.167Z,100423.34
2022-11-13T18:38:43.518Z,100431.63
2022-11-13T18:41:29.412Z,100432.97
2022-11-13T18:44:14.909Z,100419.00
2022-11-13T18:47:00.153Z,100420.66
2022-11-13T18:49:45.408Z,100424.34
2022-11-13T18:52:32.775Z,100420.84
2022-11-13T18:55:18.212Z,100421.38
2022-11-13T18:58:03.586Z,100399.56
2022-11-13T19:00:49.046Z,100417.38
2022-11-13T19:03:34.534Z,100416.88
2022-11-13T19:06:21.265Z,100419.53
2022-11-13T19:09:09.896Z,100423.53
2022-11-13T19:11:54.860Z,100419.69
2022-11-13T19:14:40.231Z,100412.25
2022-11-13T19:17:25.513Z,100412.75
2022-11-13T19:20:11.154Z,100420.22
2022-11-13T19:22:56.343Z,100419.72
2022-11-13T19:25:42.324Z,100416.41
2022-11-13T19:28:28.478Z,100416.41
2022-11-13T19:31:16.073Z,100401.78
2022-11-13T19:34:03.441Z,100411.09
2022-11-13T19:36:51.407Z,100409.78
2022-11-13T19:39:37.448Z,100410.75
2022-11-13T19:42:22.493Z,100409.28
2022-11-13T19:45:08.437Z,100410.28
2022-11-13T19:47:53.685Z,100411.06
2022-11-13T19:50:39.123Z,100413.41
2022-11-13T19:53:24.376Z,100412.41
2022-11-13T19:56:09.668Z,100409.25
2022-11-13T19:58:55.574Z,100416.06
2022-11-13T20:01:42.082Z,100398.63
2022-11-13T20:04:27.858Z,100407.09
2022-11-13T20:07:13.178Z,100402.81
2022-11-13T20:09:58.402Z,100409.75
2022-11-13T20:12:43.680Z,100407.63
2022-11-13T20:15:29.018Z,100401.13
2022-11-13T20:18:14.495Z,100401.81
2022-11-13T20:21:00.010Z,100405.44
2022-11-13T20:23:45.570Z,100394.16
2022-11-13T20:26:30.667Z,100388.00
2022-11-13T20:29:16.160Z,100392.00
2022-11-13T20:32:01.860Z,100391.66
2022-11-13T20:34:46.805Z,100386.84
2022-11-13T20:37:32.192Z,100383.34
2022-11-13T20:40:17.816Z,100385.84
2022-11-13T20:43:03.045Z,100382.03
2022-11-13T20:45:48.437Z,100375.72
2022-11-13T20:48:34.412Z,100366.59
2022-11-13T20:51:21.983Z,100368.59
2022-11-13T20:54:07.372Z,100375.53
2022-11-13T20:56:52.478Z,100376.06
2022-11-13T20:59:37.909Z,100373.22
2022-11-13T21:02:23.475Z,100375.22
2022-11-13T21:05:08.787Z,100370.72
2022-11-13T21:07:53.991Z,100373.38
2022-11-13T21:10:39.338Z,100376.38
2022-11-13T21:13:24.656Z,100379.19
2022-11-13T21:16:10.001Z,100384.00
2022-11-13T21:18:59.605Z,100381.84
2022-11-13T21:21:44.833Z,100368.72
2022-11-13T21:24:29.929Z,100361.94
2022-11-13T21:27:15.297Z,100364.44
2022-11-13T21:30:00.552Z,100361.78
2022-11-13T21:32:45.712Z,100353.81
2022-11-13T21:35:31.126Z,100356.47
2022-11-13T21:38:16.490Z,100349.16
2022-11-13T21:41:21.556Z,100347.31
2022-11-13T21:44:08.562Z,100345.34
2022-11-13T21:46:54.121Z,100343.53
2022-11-13T21:49:39.472Z,100343.03
2022-11-13T21:52:24.768Z,100342.34
2022-11-13T21:55:10.153Z,100344.84
2022-11-13T21:57:55.875Z,100339.38
2022-11-13T22:00:40.698Z,100332.41
2022-11-13T22:03:27.277Z,100336.38
2022-11-13T22:06:19.712Z,100332.41
2022-11-13T22:09:12.973Z,100333.22
2022-11-13T22:11:58.408Z,100340.53
2022-11-13T22:14:43.635Z,100346.50
2022-11-13T22:17:28.899Z,100341.22
2022-11-13T22:20:14.881Z,100338.03
2022-11-13T22:23:00.512Z,100336.06
2022-11-13T22:25:45.838Z,100337.72
2022-11-13T22:28:33.312Z,100338.06
2022-11-13T22:31:29.804Z,100338.56
2022-11-13T22:34:15.091Z,100336.22
2022-11-13T22:37:00.466Z,100327.94
2022-11-13T22:39:45.755Z,100325.09
2022-11-13T22:42:31.178Z,100316.50
2022-11-13T22:45:23.874Z,100321.78
2022-11-13T22:48:10.712Z,100311.81
2022-11-13T22:50:56.104Z,100302.03
2022-11-13T22:53:42.964Z,100301.19
2022-11-13T22:56:31.386Z,100299.91
2022-11-13T22:59:16.757Z,100293.41
2022-11-13T23:02:01.989Z,100290.06
2022-11-13T23:04:47.257Z,100280.44
2022-11-13T23:07:32.567Z,100282.25
2022-11-13T23:10:18.074Z,100284.09
2022-11-13T23:13:03.393Z,100279.06
2022-11-13T23:15:48.803Z,100267.78
2022-11-13T23:18:34.013Z,100272.09
2022-11-13T23:21:19.746Z,100267.47
2022-11-13T23:24:04.957Z,100260.50
2022-11-13T23:26:49.969Z,100261.16
2022-11-13T23:29:35.422Z,100271.78
2022-11-13T23:32:20.635Z,100260.53
2022-11-13T23:35:06.561Z,100265.50
2022-11-13T23:37:51.730Z,100264.34
2022-11-13T23:40:37.130Z,100271.31
2022-11-13T23:43:23.603Z,100266.66
2022-11-13T23:46:14.734Z,100273.78
2022-11-13T23:49:00.147Z,100273.28
2022-11-13T23:51:45.517Z,100274.44
2022-11-13T23:54:30.692Z,100283.91
2022-11-13T23:57:16.308Z,100273.25
